logo
App data

Assassin's Creed: Director's Cut Edition

Assassin's Creed™ is the next-gen game developed by Ubisoft Montreal that redefines the action genre. While other games claim to be next-gen with impressive graphics and physics, Assassin's Creed merges technology, game design, theme and emotions into a world where you instigate chaos and become a vulnerable, yet powerful, agent of...
Store | Hub | SteamDB | Site
Developer: Ubisoft Montreal Publisher: Ubisoft
Genre: Action, Adventure
Languages: English, French, Italian, German, Spanish - Spain
Tags: Action (509), Adventure (403), Stealth (395), Parkour (385), Open World (382), Third Person (339), Historical (297), Medieval (269), Singleplayer (267), Assassin (262), Conspiracy (134), Atmospheric (124), Story Rich (115), Action-Adventure (110), Great Soundtrack (84), Classic (81), Sandbox (69), Sci-fi (65), Controller (65), RPG (40)
Category: Single-player, Partial Controller Support
Release date: Apr 9, 2008
Price: $19.99
Old userscore: 83% Metascore: 79%
Owners: 500,000 .. 1,000,000
Followers: 27,551
Peak concurrent players yesterday: 154
YouTube stats: 7 views and 0 comments for top 50 videos uploaded last week, 0 new videos uploaded yesterday.
Playtime total: 11:19 (average) 07:44 (median)

Steam Spy is still in beta, so expect major bugs.

Owners data:

Access restricted.

This feature is only available to users with special access rights. Sorry.

If you want to proceed, you need to register or log in first and then back Steam Spy on Patreon. Look for Indie or Pro pledge.

Don't forget to use the same email as on Steam Spy!

If you've recently backed Steam Spy on Patreon, please note, that it might take around 15 minutes for your access rights to sync. In most cases you'll need to re-login on Steam Spy too.

Audience in 2 weeks:

Access restricted.

This feature is only available to users with special access rights. Sorry.

If you want to proceed, you need to register or log in first and then back Steam Spy on Patreon. Look for Indie or Pro pledge.

Don't forget to use the same email as on Steam Spy!

If you've recently backed Steam Spy on Patreon, please note, that it might take around 15 minutes for your access rights to sync. In most cases you'll need to re-login on Steam Spy too.

Peak daily concurrent players:

CCU data courtesy of SteamDB. Used with permission.

Hourly concurrent players:

Daily Twitch stats:

Hourly Twitch stats:

Followers over time

Access restricted.

This feature is only available to users with special access rights. Sorry.

If you want to proceed, you need to register or log in first and then back Steam Spy on Patreon. Look for Indie or Pro pledge.

Don't forget to use the same email as on Steam Spy!

If you've recently backed Steam Spy on Patreon, please note, that it might take around 15 minutes for your access rights to sync. In most cases you'll need to re-login on Steam Spy too.

Views for top 50 videos on YouTube for this game:

Games similar to this one:

# Game Release date
Price
Score rank
(Userscore / Metascore)
Owners
Players
Playtime (Median)
1 Panzer Corps Gold Mar 12, 2014 $29.99N/A (N/A/80%)100,000 .. 200,0000%00:00 (00:00)
2 Enemy Front Jun 10, 2014 $19.99N/A (N/A/52%)200,000 .. 500,0000%00:00 (00:00)
3 XCOM 2 Feb 4, 2016 $59.99N/A (N/A/88%)2,000,000 .. 5,000,0003.36%26:36 (37:19)
4 Dominions 4: Thrones of Ascension Dec 5, 2013 $34.99N/A (N/A)50,000 .. 100,0000%00:00 (00:00)
5 RUNNING WITH RIFLES Apr 2, 2015 $14.99N/A (N/A/78%)500,000 .. 1,000,0002.17%02:16 (00:45)
6 Killer is Dead - Nightmare Edition May 23, 2014 $19.99N/A (N/A)1,000,000 .. 2,000,0000%00:00 (00:00)
7 Worms World Party Remastered Jul 16, 2015 $14.99N/A (N/A)100,000 .. 200,0000%00:00 (00:00)
8 Dungeons 2 Apr 24, 2015 $19.99N/A (N/A/70%)1,000,000 .. 2,000,0000%00:00 (00:00)
9 Offworld Trading Company Apr 28, 2016 $29.99N/A (N/A/78%)500,000 .. 1,000,0000%00:00 (00:00)
10 Crimsonland Jun 11, 2014 $13.99N/A (N/A/68%)100,000 .. 200,0000%00:00 (00:00)
11 StarDrive 2 Apr 9, 2015 $4.99N/A (N/A/70%)50,000 .. 100,0000%00:00 (00:00)
12 Blockstorm May 21, 2015 $4.99N/A (N/A)500,000 .. 1,000,0000%00:00 (00:00)
13 Death Road to Canada Jul 21, 2016 $14.99N/A (N/A)200,000 .. 500,0000%00:00 (00:00)
14 One Finger Death Punch Mar 3, 2014 $4.99N/A (N/A)500,000 .. 1,000,0000%00:00 (00:00)
15 Abyss Odyssey Jul 15, 2014 $14.99N/A (N/A/69%)200,000 .. 500,0000%00:00 (00:00)
16 Age of Mythology: Extended Edition May 8, 2014 $29.99N/A (N/A/66%)1,000,000 .. 2,000,0002.74%03:25 (02:16)
17 Max: The Curse of Brotherhood May 21, 2014 $14.99N/A (N/A)50,000 .. 100,0000%00:00 (00:00)
18 Stronghold Legends: Steam Edition Oct 27, 2009 $14.99N/A (N/A)200,000 .. 500,0000%00:00 (00:00)
19 Darksiders Sep 23, 2010 $19.99N/A (N/A/83%)2,000,000 .. 5,000,0000%00:00 (00:00)
20 Call of Duty: Black Ops Nov 9, 2010 $39.99N/A (N/A/81%)1,000,000 .. 2,000,0000%00:00 (00:00)
21 Homefront Mar 14, 2011 $19.99N/A (N/A/70%)2,000,000 .. 5,000,0000%00:00 (00:00)
22 Devil May Cry 4 Dec 22, 2009 $19.99N/A (N/A/78%)50,000 .. 100,0000%00:00 (00:00)
23 Broken Sword: Director's Cut Sep 2, 2010 $5.99N/A (N/A)200,000 .. 500,0000%00:00 (00:00)
24 Syberia II Mar 30, 2004 $12.99N/A (N/A/80%)500,000 .. 1,000,0000%00:00 (00:00)
25 Blood Bowl - Legendary Edition Oct 28, 2010 $9.99N/A (N/A/73%)200,000 .. 500,0000%00:00 (00:00)
26 Stronghold 3 Gold May 25, 2012 $29.99N/A (N/A)500,000 .. 1,000,0000%00:00 (00:00)
27 Supreme Commander 2 Mar 1, 2010 $12.99N/A (N/A/77%)1,000,000 .. 2,000,0001.33%05:39 (01:53)
28 Assassin’s Creed Brotherhood Mar 22, 2011 $19.99N/A (N/A/88%)1,000,000 .. 2,000,0001.56%87:44 (29:14)
29 Stronghold HD Oct 19, 2001 $5.99N/A (N/A/81%)1,000,000 .. 2,000,0000%00:00 (00:00)
30 Might & Magic: Heroes VI Oct 13, 2011 $19.99N/A (N/A/77%)500,000 .. 1,000,0000%00:00 (00:00)
31 Stronghold 2: Steam Edition April - May 2021 $14.99N/A (N/A)0 .. 20,0004%09:28 (03:09)
32 Anno 2070 Nov 17, 2011 $19.99N/A (N/A/83%)500,000 .. 1,000,0000%00:00 (00:00)
33 Stronghold Crusader HD Jul 31, 2002 $9.99N/A (N/A/78%)1,000,000 .. 2,000,0000%00:00 (00:00)
34 Mafia II (Classic) Mar 22, 2011 N/AN/A (N/A/77%)2,000,000 .. 5,000,0000%00:00 (00:00)
35 CLASH Nov 15, 2016 FreeN/A (N/A)100,000 .. 200,0000%00:00 (00:00)
36 Hearts of Iron IV Jun 6, 2016 $39.99N/A (N/A/83%)2,000,000 .. 5,000,00013.77%11:31 (16:01)
37 RWBY: Grimm Eclipse Jul 5, 2016 $19.99N/A (N/A)500,000 .. 1,000,0000%00:00 (00:00)
38 Dead Effect 2 May 6, 2016 $11.99N/A (N/A/53%)50,000 .. 100,0000%00:00 (00:00)
39 Swiftly Jan 26, 2016 $0.99N/A (N/A)50,000 .. 100,0000%00:00 (00:00)
40 Ben and Ed Dec 8, 2015 $9.99N/A (N/A)100,000 .. 200,0000%00:00 (00:00)
41 River City Ransom: Underground Feb 27, 2017 $19.99N/A (N/A)50,000 .. 100,0000%00:00 (00:00)
42 VERGE:Lost chapter Oct 1, 2015 $0.99N/A (N/A)20,000 .. 50,0000%00:00 (00:00)
43 Project Pulsation Dec 15, 2015 $4.99N/A (N/A)50,000 .. 100,0000%00:00 (00:00)
44 BioShock 2 Remastered Sep 15, 2016 $19.99N/A (N/A)500,000 .. 1,000,0000.44%01:01 (00:20)
45 Azure Striker Gunvolt Aug 28, 2015 $14.99N/A (N/A)50,000 .. 100,0000%00:00 (00:00)
46 EARTH DEFENSE FORCE 4.1 The Shadow of New Despair Jul 18, 2016 $19.99N/A (N/A/79%)500,000 .. 1,000,0000%00:00 (00:00)
47 DESYNC Feb 28, 2017 $14.99N/A (N/A)0 .. 20,0000%00:00 (00:00)
48 Starward Rogue Jan 22, 2016 $2.99N/A (N/A)50,000 .. 100,0000%00:00 (00:00)
49 Rise of the Tomb Raider Feb 9, 2016 $9.99N/A (N/A/86%)1,000,000 .. 2,000,0002.45%07:18 (05:34)
50 Forts Apr 19, 2017 $14.99N/A (N/A/74%)200,000 .. 500,0003.85%24:48 (16:08)
51 Endless Space 2 - Digital Deluxe Edition May 18, 2017 $9.99N/A (N/A)1,000,000 .. 2,000,0003.85%07:22 (04:49)
52 Mini Metro Nov 6, 2015 $9.99N/A (N/A/77%)500,000 .. 1,000,0000%00:00 (00:00)
53 Homeworld: Deserts of Kharak Jan 20, 2016 $49.99N/A (N/A/79%)200,000 .. 500,0000%00:00 (00:00)
54 Sid Meier’s Civilization VI Oct 20, 2016 $59.99N/A (N/A/88%)5,000,000 .. 10,000,00010.57%06:13 (03:35)
55 Splatter - Zombiecalypse Now Jun 4, 2014 $6.99N/A (N/A)200,000 .. 500,0000%00:00 (00:00)
56 Endless Legend - Emperor Edition Sep 18, 2014 $7.49N/A (N/A/82%)1,000,000 .. 2,000,0001.33%00:04 (00:01)
57 Sid Meier's Starships Mar 12, 2015 $14.99N/A (N/A/64%)200,000 .. 500,0000%00:00 (00:00)
58 LARA CROFT AND THE TEMPLE OF OSIRIS Dec 8, 2014 $19.99N/A (N/A/73%)200,000 .. 500,0000%00:00 (00:00)
59 SuperPower 2 Steam Edition Oct 11, 2004 $9.99N/A (N/A)100,000 .. 200,0000%00:00 (00:00)
60 Call of Duty: Infinite Warfare Nov 3, 2016 $29.99N/A (N/A/73%)500,000 .. 1,000,0004.76%04:33 (03:02)
61 Star Ruler 2 Mar 27, 2015 $19.99N/A (N/A)100,000 .. 200,0000%00:00 (00:00)
62 Evolve Stage 2 Feb 10, 2015 N/AN/A (N/A/77%)2,000,000 .. 5,000,0000.32%00:01 (00:00)
63 Enigmatis: The Ghosts of Maple Creek Sep 1, 2011 $9.99N/A (N/A)50,000 .. 100,0000%00:00 (00:00)
64 Brigador: Up-Armored Edition Jun 2, 2016 $19.99N/A (N/A/70%)50,000 .. 100,0000%00:00 (00:00)
65 Solarix Apr 30, 2015 $1.99N/A (N/A/47%)100,000 .. 200,0000%00:00 (00:00)
66 Depth Nov 3, 2014 $19.99N/A (N/A/65%)1,000,000 .. 2,000,0000%00:00 (00:00)
67 Rise of Nations: Extended Edition Jun 12, 2014 $19.99N/A (N/A/89%)1,000,000 .. 2,000,0003.7%12:44 (08:29)
68 A Story About My Uncle May 28, 2014 $14.99N/A (N/A/73%)5,000,000 .. 10,000,0000.71%00:39 (00:38)
69 Sid Meier's Civilization: Beyond Earth Oct 23, 2014 $39.99N/A (N/A/81%)1,000,000 .. 2,000,0003.64%00:49 (00:22)
70 Galactic Civilizations II: Ultimate Edition Apr 30, 2008 $19.99N/A (N/A/92%)200,000 .. 500,0000%00:00 (00:00)
71 Darkest Hour: A Hearts of Iron Game Apr 8, 2011 $9.99N/A (N/A/81%)200,000 .. 500,0000%00:00 (00:00)
72 Call of Duty: Black Ops II Nov 12, 2012 $39.99N/A (N/A/74%)2,000,000 .. 5,000,0000%00:00 (00:00)
73 Age of Empires III (2007) Sep 15, 2009 $39.99N/A (N/A/81%)2,000,000 .. 5,000,0000.82%10:12 (03:24)
74 Tomb Raider Mar 4, 2013 $1.99N/A (N/A/86%)5,000,000 .. 10,000,0001.03%01:06 (01:21)
75 Alan Wake Feb 16, 2012 $14.99N/A (N/A/83%)1,000,000 .. 2,000,0000%00:00 (00:00)
76 Max Payne 3 May 31, 2012 $19.99N/A (N/A/87%)1,000,000 .. 2,000,0000.85%00:56 (00:18)
77 Crysis 2 - Maximum Edition Mar 22, 2011 $7.49N/A (N/A)1,000,000 .. 2,000,0000.75%01:15 (00:25)
78 Wargame: European Escalation Feb 22, 2012 $9.99N/A (N/A/81%)200,000 .. 500,0000%00:00 (00:00)
79 Prototype 2 Jul 24, 2012 $39.99N/A (N/A/76%)500,000 .. 1,000,0000%00:00 (00:00)
80 Might & Magic: Clash of Heroes Sep 22, 2011 $9.99N/A (N/A/76%)200,000 .. 500,0000%00:00 (00:00)
81 Worms Revolution Oct 10, 2012 $14.99N/A (N/A/73%)500,000 .. 1,000,0004.21%04:53 (05:20)
82 Men of War: Assault Squad Feb 24, 2011 $9.99N/A (N/A/77%)500,000 .. 1,000,0000%00:00 (00:00)
83 Batman: Arkham City - Game of the Year Edition Sep 7, 2012 $19.99N/A (N/A/91%)2,000,000 .. 5,000,0000%00:00 (00:00)
84 The Bureau: XCOM Declassified Aug 19, 2013 $19.99N/A (N/A/66%)2,000,000 .. 5,000,0000%00:00 (00:00)
85 Assassin's Creed Revelations Nov 29, 2011 $19.99N/A (N/A/80%)500,000 .. 1,000,0000%00:00 (00:00)
86 Duke Nukem 3D: 20th Anniversary World Tour Oct 11, 2016 $19.99N/A (N/A/72%)200,000 .. 500,0000%00:00 (00:00)
87 ! That Bastard Is Trying To Steal Our Gold ! Mar 1, 2016 $2.99N/A (N/A)20,000 .. 50,0000%00:00 (00:00)
88 Masked Shooters 2 Jan 14, 2016 $0.99N/A (N/A)200,000 .. 500,0000%00:00 (00:00)
89 Madness Cubed May 12, 2016 $1.99N/A (N/A)100,000 .. 200,0000%00:00 (00:00)
90 Lost Castle / 失落城堡 Aug 31, 2016 $9.99N/A (N/A)2,000,000 .. 5,000,0000.96%00:04 (00:01)
91 Cyber City 2157: The Visual Novel May 4, 2016 $4.99N/A (N/A)200,000 .. 500,0000%00:00 (00:00)
92 Prison Run and Gun Mar 16, 2016 $4.99N/A (N/A)20,000 .. 50,0000%00:00 (00:00)
93 Halo Wars: Definitive Edition Apr 20, 2017 $19.99N/A (N/A)200,000 .. 500,0005%00:46 (00:15)
94 Rock 'N' Roll Defense Aug 10, 2016 $0.49N/A (N/A)50,000 .. 100,0000%00:00 (00:00)
95 Bayonetta Apr 11, 2017 $19.99N/A (N/A/90%)500,000 .. 1,000,0001.08%00:01 (00:00)
96 Jelly Killer Mar 24, 2016 $3.99N/A (N/A)20,000 .. 50,0000%00:00 (00:00)
97 Grow Up Aug 16, 2016 $9.99N/A (N/A/71%)100,000 .. 200,0000%00:00 (00:00)
98 This Is the Police Aug 2, 2016 $14.99N/A (N/A)500,000 .. 1,000,0000%00:00 (00:00)
99 8-Bit Armies Apr 22, 2016 $6.74N/A (N/A/69%)100,000 .. 200,0000%00:00 (00:00)
100 Might and Magic: Heroes VII – Trial by Fire Aug 4, 2016 $29.99N/A (N/A)20,000 .. 50,0000%00:00 (00:00)
101 The Walking Dead: Michonne - A Telltale Miniseries Feb 23, 2016 $14.99N/A (N/A)200,000 .. 500,0000%00:00 (00:00)
102 Planar Conquest May 30, 2016 $19.99N/A (N/A/53%)20,000 .. 50,0000%00:00 (00:00)
103 Starion Tactics Sep 5, 2014 $9.99N/A (N/A)50,000 .. 100,0000%00:00 (00:00)
104 Master of Orion Feb 26, 2016 $14.99N/A (N/A/74%)500,000 .. 1,000,0000%00:00 (00:00)
105 Blitzkrieg Anthology Mar 28, 2003 $4.99N/A (N/A)100,000 .. 200,0000%00:00 (00:00)
106 GET EVEN Jun 20, 2017 $29.99N/A (N/A/75%)20,000 .. 50,0000%00:00 (00:00)
107 Blitzkrieg 2 Anthology Sep 23, 2005 $4.99N/A (N/A/75%)100,000 .. 200,0000%00:00 (00:00)
108 Saints Row: Gat out of Hell Jan 20, 2015 $14.99N/A (N/A/66%)500,000 .. 1,000,0000%00:00 (00:00)
109 Rampage Knights Sep 4, 2015 $11.99N/A (N/A/80%)200,000 .. 500,0000%00:00 (00:00)
110 Ultimate General: Gettysburg Oct 16, 2014 $14.99N/A (N/A/84%)200,000 .. 500,0000%00:00 (00:00)
111 Grim Fandango Remastered Jan 26, 2015 $14.99N/A (N/A/84%)200,000 .. 500,0000%00:00 (00:00)
112 Obduction Aug 24, 2016 $29.99N/A (N/A/76%)200,000 .. 500,0000%00:00 (00:00)
113 Deponia: The Complete Journey Jul 8, 2014 $29.99N/A (N/A)1,000,000 .. 2,000,0000%00:00 (00:00)
114 Grand Ages: Medieval Sep 25, 2015 $9.99N/A (N/A/63%)100,000 .. 200,0000%00:00 (00:00)
115 Renowned Explorers: International Society Sep 2, 2015 $19.99N/A (N/A)200,000 .. 500,0000%00:00 (00:00)
116 LEGO Pirates of the Caribbean: The Video Game May 24, 2011 $19.99N/A (N/A)100,000 .. 200,0000%00:00 (00:00)
117 Heroes of Might & Magic III - HD Edition Jan 29, 2015 $14.99N/A (N/A/65%)1,000,000 .. 2,000,0002.22%01:57 (00:39)
118 Way of the Samurai 4 Jul 23, 2015 $24.99N/A (N/A/72%)100,000 .. 200,0000%00:00 (00:00)
119 Close Combat - Gateway to Caen Jun 6, 2014 $39.99N/A (N/A)50,000 .. 100,0000%00:00 (00:00)
120 Assassin’s Creed III Nov 20, 2012 N/AN/A (N/A/80%)1,000,000 .. 2,000,0000%00:00 (00:00)
121 DmC: Devil May Cry Jan 24, 2013 $29.99N/A (N/A/85%)1,000,000 .. 2,000,0000%00:00 (00:00)
122 Batman: Arkham Origins Oct 24, 2013 $19.99N/A (N/A/74%)2,000,000 .. 5,000,0000.63%00:03 (00:01)
123 Chaos on Deponia Nov 6, 2012 $1.99N/A (N/A/78%)200,000 .. 500,0000%00:00 (00:00)
124 Resident Evil: Operation Raccoon City May 18, 2012 $5.99N/A (N/A/48%)200,000 .. 500,0000%00:00 (00:00)
125 Resident Evil 6 Mar 22, 2013 $7.49N/A (N/A/69%)1,000,000 .. 2,000,0000.76%34:32 (11:30)
126 Sonic Adventure 2 Nov 19, 2012 $9.99N/A (N/A)500,000 .. 1,000,0000%00:00 (00:00)
127 Age of Empires II (2013) Apr 9, 2013 $19.99N/A (N/A/68%)5,000,000 .. 10,000,0001.44%04:33 (04:10)
128 Minimum Sep 10, 2014 N/AN/A (N/A/69%)200,000 .. 500,0000%00:00 (00:00)
129 Infested Planet Mar 6, 2014 $14.99N/A (N/A/75%)200,000 .. 500,0000%00:00 (00:00)
130 Deponia Aug 6, 2012 $0.99N/A (N/A/74%)1,000,000 .. 2,000,0000%00:00 (00:00)
131 Sins of a Solar Empire: Rebellion Jun 12, 2012 $39.99N/A (N/A/82%)2,000,000 .. 5,000,0000.27%00:01 (00:00)
132 Total War: ROME II - Emperor Edition Sep 2, 2013 $59.99N/A (N/A/76%)2,000,000 .. 5,000,0004.82%04:37 (06:06)
133 Port Royale 3 May 4, 2012 $14.99N/A (N/A)100,000 .. 200,0000%00:00 (00:00)
134 PlanetSide 2 Nov 20, 2012 FreeN/A (N/A/84%)5,000,000 .. 10,000,0000.85%12:21 (16:07)
135 Endless Space - Definitive Edition Jul 4, 2012 $2.49N/A (N/A/77%)1,000,000 .. 2,000,0000.47%00:10 (00:03)
136 Mercenary Kings: Reloaded Edition Mar 25, 2014 $19.99N/A (N/A/76%)200,000 .. 500,0000%00:00 (00:00)
137 Crime Secrets: Crimson Lily Jul 14, 2016 $9.99N/A (N/A)20,000 .. 50,0000%00:00 (00:00)
138 Supreme Commander: Forged Alliance Sep 28, 2011 $12.99N/A (N/A/81%)500,000 .. 1,000,0003.37%00:37 (00:36)
139 Yomawari: Night Alone Oct 25, 2016 $9.99N/A (N/A)20,000 .. 50,0000%00:00 (00:00)
140 Sid Meier's Civilization IV Oct 25, 2005 $19.99N/A (N/A/94%)1,000,000 .. 2,000,0000%00:00 (00:00)
141 Z.I.O.N. May 7, 2016 $4.99N/A (N/A)50,000 .. 100,0000%00:00 (00:00)
142 Star Trek Online Feb 2, 2010 FreeN/A (N/A/66%)2,000,000 .. 5,000,0000%00:00 (00:00)
143 Mansions of Madness Aug 1, 2016 FreeN/A (N/A)100,000 .. 200,0000%00:00 (00:00)
144 Sid Meier's Civilization III Complete Oct 30, 2001 $4.99N/A (N/A/90%)1,000,000 .. 2,000,0000%00:00 (00:00)
145 Home Behind Jun 2, 2016 $3.89N/A (N/A)200,000 .. 500,0000%00:00 (00:00)
146 Prototype Jun 10, 2009 $19.99N/A (N/A/79%)500,000 .. 1,000,0000%00:00 (00:00)
147 Radical Spectrum: Volume 1 Jul 8, 2016 $0.99N/A (N/A)50,000 .. 100,0000%00:00 (00:00)
148 Warhammer 40,000: Dawn of War - Game of the Year Edition Jan 1, 2006 $12.99N/A (N/A/86%)1,000,000 .. 2,000,0000.91%05:24 (01:48)
149 Impact Winter May 22, 2017 N/AN/A (N/A/63%)20,000 .. 50,0000%00:00 (00:00)
150 Call of Duty: Modern Warfare 2 Nov 11, 2009 $19.99N/A (N/A/86%)200,000 .. 500,0000.6%00:03 (00:01)
151 Take Thy Throne Jul 5, 2016 $1.99N/A (N/A)100,000 .. 200,0000%00:00 (00:00)
152 Warhammer 40,000: Dawn of War - Dark Crusade Oct 9, 2006 $12.99N/A (N/A/87%)1,000,000 .. 2,000,0004.48%03:57 (03:42)
153 Rick and Morty: Virtual Rick-ality Apr 20, 2017 $29.99N/A (N/A/75%)100,000 .. 200,0000%00:00 (00:00)
154 Call of Duty: Modern Warfare 2 Nov 11, 2009 $19.99N/A (N/A/86%)5,000,000 .. 10,000,0000.6%00:56 (00:18)
155 Has-Been Heroes Mar 28, 2017 $19.99N/A (N/A/63%)20,000 .. 50,0000%00:00 (00:00)
156 Total War: MEDIEVAL II – Definitive Edition Nov 15, 2006 $24.99N/A (N/A)2,000,000 .. 5,000,0000%00:00 (00:00)
157 Super Mega Neo Pug May 11, 2016 $0.99N/A (N/A)100,000 .. 200,0000%00:00 (00:00)
158 Counter-Strike Nov 1, 2000 $9.99N/A (N/A/88%)10,000,000 .. 20,000,0003.51%06:32 (10:47)
159 Darksiders Warmastered Edition Nov 29, 2016 $19.99N/A (N/A)1,000,000 .. 2,000,0000%00:00 (00:00)
160 Rome: Total War - Collection Aug 28, 2007 $12.99N/A (N/A/92%)1,000,000 .. 2,000,0001.25%00:42 (00:14)
161 Event[0] Sep 14, 2016 $19.99N/A (N/A/75%)100,000 .. 200,0000%00:00 (00:00)
162 Counter-Strike: Source Nov 1, 2004 $9.99N/A (N/A/88%)10,000,000 .. 20,000,0002.26%16:40 (04:43)
163 Farnham Fables Jun 20, 2016 $0.99N/A (N/A)100,000 .. 200,0000%00:00 (00:00)
164 Sid Meier's Railroads! Oct 16, 2006 $9.99N/A (N/A/77%)500,000 .. 1,000,0000%00:00 (00:00)
165 Killbot Jul 10, 2016 $0.99N/A (N/A)50,000 .. 100,0000%00:00 (00:00)
166 Earth 2160 Apr 1, 2006 $4.99N/A (N/A/73%)500,000 .. 1,000,0000%00:00 (00:00)
167 Hiiro Jul 12, 2016 $2.99N/A (N/A)100,000 .. 200,0000%00:00 (00:00)
168 Civilization IV: Beyond the Sword Jul 24, 2007 $9.99N/A (N/A/86%)500,000 .. 1,000,0003.45%11:21 (07:28)
169 Quantum Break Sep 29, 2016 $39.99N/A (N/A/66%)1,000,000 .. 2,000,0001.41%01:19 (00:26)
170 Call of Duty 2 Oct 25, 2005 $19.99N/A (N/A/86%)1,000,000 .. 2,000,0000%00:00 (00:00)
171 Town of Salem Dec 15, 2014 $4.99N/A (N/A)1,000,000 .. 2,000,0002.47%04:41 (02:58)
172 DYNASTY WARRIORS 8 Empires Feb 26, 2015 $49.99N/A (N/A)50,000 .. 100,0000%00:00 (00:00)
173 Runestone Keeper Mar 2, 2015 $9.99N/A (N/A)200,000 .. 500,0000%00:00 (00:00)
174 Tharsis Jan 11, 2016 $14.99N/A (N/A/61%)200,000 .. 500,0000%00:00 (00:00)
175 Ember Sep 9, 2016 $9.99N/A (N/A/70%)50,000 .. 100,0000%00:00 (00:00)
176 Total War: ATTILA Feb 17, 2015 $44.99N/A (N/A/80%)1,000,000 .. 2,000,0006.25%00:54 (00:52)
177 Sinless + OST Dec 16, 2015 $4.99N/A (N/A)50,000 .. 100,0000%00:00 (00:00)
178 Worms W.M.D Aug 23, 2016 $29.99N/A (N/A/79%)500,000 .. 1,000,0001.92%00:02 (00:00)
179 Man O' War: Corsair - Warhammer Naval Battles Apr 19, 2017 $29.99N/A (N/A)20,000 .. 50,0000%00:00 (00:00)
180 Anna's Quest Jul 2, 2015 $1.99N/A (N/A/74%)200,000 .. 500,0000%00:00 (00:00)
181 Chaos Reborn Oct 26, 2015 $9.99N/A (N/A/85%)50,000 .. 100,0000%00:00 (00:00)
182 Devil May Cry 4 Special Edition Jun 23, 2015 $24.99N/A (N/A)500,000 .. 1,000,0000%00:00 (00:00)
183 Trine 3: The Artifacts of Power Aug 20, 2015 $21.99N/A (N/A)200,000 .. 500,0000%00:00 (00:00)
184 Gems of War - Puzzle RPG Nov 20, 2014 FreeN/A (N/A)500,000 .. 1,000,0000%00:00 (00:00)
185 SteamWorld Heist Jun 7, 2016 $14.99N/A (N/A/81%)500,000 .. 1,000,0000%00:00 (00:00)
186 Cossacks 3 Sep 20, 2016 $19.99N/A (N/A)1,000,000 .. 2,000,0000%00:00 (00:00)
187 Gurumin: A Monstrous Adventure Mar 30, 2015 $9.99N/A (N/A)50,000 .. 100,0000%00:00 (00:00)
188 Super House of Dead Ninjas Feb 18, 2013 $6.99N/A (N/A/79%)100,000 .. 200,0000%00:00 (00:00)
189 Company of Heroes 2 Jun 25, 2013 $19.99N/A (N/A/80%)5,000,000 .. 10,000,0000.99%06:59 (07:41)
190 Brothers - A Tale of Two Sons Sep 3, 2013 $14.99N/A (N/A/90%)1,000,000 .. 2,000,0000%00:00 (00:00)
191 Stronghold Crusader 2 Sep 22, 2014 $39.99N/A (N/A/65%)1,000,000 .. 2,000,0001.52%02:51 (00:57)
192 Brutal Legend Feb 26, 2013 $14.99N/A (N/A/80%)2,000,000 .. 5,000,0000%00:00 (00:00)
193 Shadow Warrior Sep 26, 2013 $9.99N/A (N/A/73%)2,000,000 .. 5,000,0000%00:00 (00:00)
194 Full Mojo Rampage May 8, 2014 $8.7N/A (N/A)200,000 .. 500,0000%00:00 (00:00)
195 Worms Clan Wars Aug 15, 2013 $24.99N/A (N/A/73%)500,000 .. 1,000,0000%00:00 (00:00)
196 LOST PLANET 3 Aug 26, 2013 $24.99N/A (N/A)200,000 .. 500,0000%00:00 (00:00)
197 Resident Evil Revelations May 20, 2013 $6.89N/A (N/A/77%)500,000 .. 1,000,0002.5%05:49 (03:52)
198 Age of Wonders III Mar 31, 2014 $29.99N/A (N/A/80%)500,000 .. 1,000,0000.66%58:51 (39:13)
199 Wargame: Airland Battle May 29, 2013 $19.99N/A (N/A/80%)100,000 .. 200,0000%00:00 (00:00)
200 Galactic Civilizations III May 14, 2015 $39.99N/A (N/A/81%)500,000 .. 1,000,0000%00:00 (00:00)
201 Homefront: The Revolution May 17, 2016 $19.99N/A (N/A/54%)500,000 .. 1,000,0000%00:00 (00:00)
202 Full Throttle Remastered Apr 18, 2017 $14.99N/A (N/A/77%)200,000 .. 500,0000%00:00 (00:00)
203 Ace of Spades: Battle Builder N/AN/A (N/A)1,000,000 .. 2,000,0000%00:00 (00:00)
204 Deadfall Adventures Nov 15, 2013 $19.99N/A (N/A/53%)100,000 .. 200,0000%00:00 (00:00)
205 8-Bit Hordes Aug 12, 2016 $14.99N/A (N/A)20,000 .. 50,0000%00:00 (00:00)
206 Operation: New Earth Dec 14, 2016 FreeN/A (N/A)100,000 .. 200,0000%00:00 (00:00)
207 Warhammer 40,000: Sanctus Reach Jan 19, 2017 $29.99N/A (N/A/69%)50,000 .. 100,0000%00:00 (00:00)
208 TAIKU MANSION Feb 13, 2017 $0.99N/A (N/A)100,000 .. 200,0005.88%00:01 (00:00)
209 Ultimate General: Civil War Jul 14, 2017 $29.99N/A (N/A)200,000 .. 500,00025%12:29 (07:40)
210 8-Bit Invaders! Dec 16, 2016 $14.99N/A (N/A)0 .. 20,0000%00:00 (00:00)
211 911 Operator Feb 24, 2017 $14.99N/A (N/A/68%)500,000 .. 1,000,0003.23%00:20 (00:13)
212 Rusty Lake: Roots Oct 20, 2016 $2.99N/A (N/A/75%)100,000 .. 200,0000%00:00 (00:00)
213 Carmageddon: Max Damage Oct 27, 2016 $16.99N/A (N/A)100,000 .. 200,0000%00:00 (00:00)
214 Slingshot people Oct 21, 2016 $0.99N/A (N/A)500,000 .. 1,000,0000%00:00 (00:00)
215 Neon Space 2 Jul 26, 2016 $10.99N/A (N/A)50,000 .. 100,0000%00:00 (00:00)
216 RiME May 26, 2017 $29.99N/A (N/A/78%)200,000 .. 500,0005%00:41 (00:13)
217 Antihero Jul 10, 2017 $14.99N/A (N/A/81%)50,000 .. 100,0000%00:00 (00:00)
218 Kingdom: New Lands Aug 9, 2016 $14.99N/A (N/A)500,000 .. 1,000,0000%00:00 (00:00)
219 The Disney Afternoon Collection Apr 18, 2017 $19.99N/A (N/A)20,000 .. 50,0000%00:00 (00:00)
220 Noob Squad Oct 5, 2016 $0.99N/A (N/A)20,000 .. 50,0000%00:00 (00:00)
221 Merger 3D Sep 29, 2016 $2.99N/A (N/A)200,000 .. 500,0000%00:00 (00:00)
222 Battlefleet Gothic: Armada Apr 21, 2016 $19.99N/A (N/A/77%)200,000 .. 500,0000%00:00 (00:00)
223 Wolfenstein: The Old Blood May 4, 2015 $19.99N/A (N/A/76%)500,000 .. 1,000,0002.94%06:08 (04:05)
224 Total War: WARHAMMER May 24, 2016 $59.99N/A (N/A/86%)2,000,000 .. 5,000,0000%00:00 (00:00)
225 Cultures - Northland Mar 26, 2015 $4.99N/A (N/A)100,000 .. 200,0000%00:00 (00:00)
226 Battle Brothers Mar 24, 2017 $29.99N/A (N/A/80%)500,000 .. 1,000,0009.09%07:52 (02:37)
227 The Descendant Mar 24, 2016 $14.99N/A (N/A/59%)500,000 .. 1,000,0000.31%04:33 (01:31)
228 Savage Resurrection Aug 18, 2016 N/AN/A (N/A)50,000 .. 100,0000%00:00 (00:00)
229 The Silent Age May 29, 2015 $9.99N/A (N/A)200,000 .. 500,0000%00:00 (00:00)
230 Kingdom: Classic Oct 21, 2015 FreeN/A (N/A/74%)1,000,000 .. 2,000,0000.68%00:05 (00:03)
231 Space Run Galaxy Jun 17, 2016 $14.99N/A (N/A/75%)100,000 .. 200,0000%00:00 (00:00)
232 Agent Awesome Feb 17, 2015 $1.99N/A (N/A)200,000 .. 500,0000%00:00 (00:00)
233 Curious Expedition Sep 2, 2016 $14.99N/A (N/A)100,000 .. 200,0000%00:00 (00:00)
234 King's Quest Jul 28, 2015 FreeN/A (N/A)200,000 .. 500,0000%00:00 (00:00)
235 ROMANCE OF THE THREE KINGDOMS XIII Jan 27, 2016 $59.99N/A (N/A)200,000 .. 500,00010%01:11 (00:23)
236 Hero of the Kingdom II Feb 20, 2015 $7.99N/A (N/A)100,000 .. 200,0000%00:00 (00:00)
237 Goliath May 12, 2016 $11.99N/A (N/A/57%)0 .. 20,0000%00:00 (00:00)
238 SAMURAI WARRIORS 4-II Sep 29, 2015 $49.99N/A (N/A)20,000 .. 50,0000%00:00 (00:00)
239 Dreamfall Chapters Jul 21, 2017 $24.99N/A (N/A/71%)200,000 .. 500,0000%00:00 (00:00)
240 Unholy Heights Aug 16, 2013 $3.99N/A (N/A)100,000 .. 200,0000%00:00 (00:00)
241 Bionic Dues Oct 8, 2013 $2.49N/A (N/A/71%)200,000 .. 500,0000%00:00 (00:00)
242 The Wolf Among Us Oct 11, 2013 $14.99N/A (N/A/85%)1,000,000 .. 2,000,0001.52%01:13 (00:24)
243 Castlevania: Lords of Shadow 2 Feb 25, 2014 $39.99N/A (N/A/58%)200,000 .. 500,0000%00:00 (00:00)
244 Wargame: Red Dragon Apr 17, 2014 $29.99N/A (N/A/78%)1,000,000 .. 2,000,0001.67%00:27 (00:09)
245 Goodbye Deponia Oct 17, 2013 $1.99N/A (N/A/80%)200,000 .. 500,0000%00:00 (00:00)
246 INFRA Jan 15, 2016 $29.99N/A (N/A)50,000 .. 100,0000%00:00 (00:00)
247 Middle-earth: Shadow of Mordor Sep 30, 2014 $9.99N/A (N/A/84%)2,000,000 .. 5,000,0001.14%01:18 (01:11)
248 Castlevania: Lords of Shadow – Ultimate Edition Aug 27, 2013 $29.99N/A (N/A)200,000 .. 500,0000%00:00 (00:00)
249 The Dark Eye: Memoria Aug 29, 2013 $1.99N/A (N/A/79%)200,000 .. 500,0000%00:00 (00:00)
250 Mad Max Sep 1, 2015 $19.99N/A (N/A/73%)2,000,000 .. 5,000,0000.61%00:36 (00:12)
251 Men of War: Assault Squad 2 May 15, 2014 $29.99N/A (N/A/68%)1,000,000 .. 2,000,0001.47%15:12 (05:04)
252 Warhammer: End Times - Vermintide Oct 23, 2015 $7.49N/A (N/A/79%)1,000,000 .. 2,000,0000.98%03:21 (01:07)
253 Tropico 5 May 23, 2014 $19.99N/A (N/A/75%)1,000,000 .. 2,000,0000%00:00 (00:00)
254 Blood Bowl 2 Sep 22, 2015 $19.99N/A (N/A/76%)500,000 .. 1,000,0000%00:00 (00:00)
255 Plague Inc: Evolved Feb 18, 2016 $14.99N/A (N/A)2,000,000 .. 5,000,0000.54%00:42 (00:14)
256 Warhammer 40,000: Dawn of War II Feb 18, 2009 $19.99N/A (N/A/85%)500,000 .. 1,000,0000%00:00 (00:00)
257 ICEY Nov 17, 2016 $10.99N/A (N/A/84%)500,000 .. 1,000,0000%00:00 (00:00)
258 Assassin's Creed 2 Deluxe Edition Mar 9, 2010 $19.99N/A (N/A/86%)2,000,000 .. 5,000,0001.01%00:07 (00:02)
259 Shadows 2: Perfidia Mar 24, 2017 $9.99N/A (N/A)200,000 .. 500,0000%00:00 (00:00)
260 Crysis Warhead Sep 17, 2008 $7.49N/A (N/A/84%)1,000,000 .. 2,000,0001.56%00:33 (00:11)
261 Soda Dungeon Feb 6, 2017 FreeN/A (N/A)500,000 .. 1,000,0000%00:00 (00:00)
262 Sniper: Ghost Warrior Jun 24, 2010 $7.99N/A (N/A/55%)500,000 .. 1,000,0000%00:00 (00:00)
263 Battle Bruise Apr 22, 2017 $0.99N/A (N/A)20,000 .. 50,0000%00:00 (00:00)
264 Command & Conquer: Red Alert 3 Jan 8, 2009 $19.99N/A (N/A/82%)500,000 .. 1,000,0000%00:00 (00:00)
265 Kingdoms and Castles Jul 20, 2017 $9.99N/A (N/A)1,000,000 .. 2,000,0005.26%00:25 (00:10)
266 Batman: Arkham Asylum Game of the Year Edition Mar 26, 2010 $19.99N/A (N/A/91%)2,000,000 .. 5,000,0000%00:00 (00:00)
267 Minecraft: Story Mode - Season Two Jul 11, 2017 N/AN/A (N/A)20,000 .. 50,0000%00:00 (00:00)
268 Warhammer 40,000: Dawn of War II Chaos Rising Mar 10, 2010 $19.99N/A (N/A/85%)1,000,000 .. 2,000,0001.43%00:08 (00:02)
269 Thimbleweed Park Mar 30, 2017 $19.99N/A (N/A/84%)100,000 .. 200,0000%00:00 (00:00)
270 RIFT Oct 24, 2013 FreeN/A (N/A/84%)2,000,000 .. 5,000,0000%00:00 (00:00)
271 Resident Evil 5 Sep 15, 2009 $4.99N/A (N/A/86%)1,000,000 .. 2,000,0000%00:00 (00:00)
272 State of Anarchy: Master of Mayhem Mar 31, 2017 $2.99N/A (N/A)20,000 .. 50,0000%00:00 (00:00)
273 Total War: EMPIRE – Definitive Edition Mar 4, 2009 $24.99N/A (N/A/90%)2,000,000 .. 5,000,0001.19%01:13 (00:24)
274 Worms Reloaded Aug 26, 2010 $19.99N/A (N/A/79%)500,000 .. 1,000,0000%00:00 (00:00)
275 Marvel's Guardians of the Galaxy: The Telltale Series Apr 18, 2017 N/AN/A (N/A/78%)200,000 .. 500,0000%00:00 (00:00)
276 Aliens vs. Predator Feb 16, 2010 $14.99N/A (N/A/68%)1,000,000 .. 2,000,0000%00:00 (00:00)
277 Cavern Escape Extremely Hard game!!! Feb 20, 2017 $0.51N/A (N/A)50,000 .. 100,0003.45%04:06 (01:22)
278 Command & Conquer 3: Tiberium Wars Mar 28, 2007 $14.99N/A (N/A/85%)500,000 .. 1,000,0000%00:00 (00:00)
279 Yonder: The Cloud Catcher Chronicles Jul 18, 2017 $24.99N/A (N/A/70%)50,000 .. 100,0000%00:00 (00:00)
280 Tom Clancy's Rainbow Six Vegas 2 Apr 16, 2008 $9.99N/A (N/A/78%)500,000 .. 1,000,0000%00:00 (00:00)
281 The Butterfly Sign Dec 13, 2016 $4.99N/A (N/A)200,000 .. 500,0000%00:00 (00:00)
282 Command & Conquer 3: Kane's Wrath Nov 13, 2009 $14.99N/A (N/A/77%)100,000 .. 200,0000%00:00 (00:00)
283 Steampunk Syndicate Apr 13, 2017 $1.99N/A (N/A)50,000 .. 100,0000%00:00 (00:00)
284 Heroes of Might & Magic V: Tribes of the East Oct 16, 2007 $9.99N/A (N/A/70%)200,000 .. 500,0000%00:00 (00:00)
285 Realpolitiks Feb 16, 2017 $14.99N/A (N/A/52%)50,000 .. 100,0000%00:00 (00:00)
286 STAR WARS - The Force Unleashed Ultimate Sith Edition Dec 15, 2009 $19.99N/A (N/A/65%)1,000,000 .. 2,000,0000%00:00 (00:00)
287 Crisis in the Kremlin Mar 20, 2017 $4.99N/A (N/A)200,000 .. 500,0004%04:17 (01:25)
288 Planetary Annihilation: TITANS Aug 18, 2015 $29.99N/A (N/A)500,000 .. 1,000,0001.45%32:10 (10:43)
289 Kelvin and the Infamous Machine Jul 21, 2016 $9.99N/A (N/A/79%)50,000 .. 100,0000%00:00 (00:00)
290 Crossout Jul 26, 2017 FreeN/A (N/A)2,000,000 .. 5,000,0002.17%03:48 (03:36)
291 Putrefaction Aug 7, 2015 $0.99N/A (N/A)50,000 .. 100,0000%00:00 (00:00)
292 SMITE Sep 8, 2015 FreeN/A (N/A/83%)10,000,000 .. 20,000,0003.37%07:44 (06:26)
293 The Surge May 15, 2017 $19.99N/A (N/A/72%)1,000,000 .. 2,000,0000%00:00 (00:00)
294 Day of the Tentacle Remastered Mar 21, 2016 $14.99N/A (N/A/86%)500,000 .. 1,000,0002.33%01:06 (00:22)
295 Thea: The Awakening Nov 20, 2015 $19.99N/A (N/A/73%)100,000 .. 200,0000%00:00 (00:00)
296 Darksiders II Deathinitive Edition Nov 5, 2015 $29.99N/A (N/A)1,000,000 .. 2,000,0000.73%00:25 (00:08)
297 80 Days Sep 28, 2015 $12.99N/A (N/A/84%)100,000 .. 200,0000%00:00 (00:00)
298 Halcyon 6: Starbase Commander Sep 8, 2016 $14.99N/A (N/A/71%)50,000 .. 100,0000%00:00 (00:00)
299 Dead Island: Riptide Definitive Edition May 31, 2016 $19.99N/A (N/A)200,000 .. 500,0000%00:00 (00:00)
300 Tap Heroes Jun 5, 2015 $2.99N/A (N/A)200,000 .. 500,0000%00:00 (00:00)
301 Firewatch Feb 9, 2016 $19.99N/A (N/A/81%)1,000,000 .. 2,000,0001.25%01:46 (00:35)
302 Portal Knights May 18, 2017 $19.99N/A (N/A/72%)500,000 .. 1,000,0000%00:00 (00:00)
303 NECROPOLIS: BRUTAL EDITION Jul 2016 $29.99N/A (N/A)200,000 .. 500,0000%00:00 (00:00)
304 Anno 2205 Nov 2, 2015 $39.99N/A (N/A/72%)500,000 .. 1,000,0000%00:00 (00:00)

Geography of active players over time, share:

Access restricted.

This feature is only available to users with special access rights. Sorry.

If you want to proceed, you need to register or log in first and then back Steam Spy on Patreon. Look for Indie or Pro pledge.

Don't forget to use the same email as on Steam Spy!

If you've recently backed Steam Spy on Patreon, please note, that it might take around 15 minutes for your access rights to sync. In most cases you'll need to re-login on Steam Spy too.

Tags over time:

Access restricted.

This feature is only available to users with special access rights. Sorry.

If you want to proceed, you need to register or log in first and then back Steam Spy on Patreon. Look for Indie or Pro pledge.

Don't forget to use the same email as on Steam Spy!

If you've recently backed Steam Spy on Patreon, please note, that it might take around 15 minutes for your access rights to sync. In most cases you'll need to re-login on Steam Spy too.

Owners of this game also own:

Access restricted.

This feature is only available to users with special access rights. Sorry.

If you want to proceed, you need to register or log in first and then back Steam Spy on Patreon. Look for Indie or Pro pledge.

Don't forget to use the same email as on Steam Spy!

If you've recently backed Steam Spy on Patreon, please note, that it might take around 15 minutes for your access rights to sync. In most cases you'll need to re-login on Steam Spy too.

Playtime distribution:

Access restricted.

This feature is only available to users with special access rights. Sorry.

If you want to proceed, you need to register or log in first and then back Steam Spy on Patreon. Look for Indie or Pro pledge.

Don't forget to use the same email as on Steam Spy!

If you've recently backed Steam Spy on Patreon, please note, that it might take around 15 minutes for your access rights to sync. In most cases you'll need to re-login on Steam Spy too.

Playtime (2 weeks):

Access restricted.

This feature is only available to users with special access rights. Sorry.

If you want to proceed, you need to register or log in first and then back Steam Spy on Patreon. Look for Indie or Pro pledge.

Don't forget to use the same email as on Steam Spy!

If you've recently backed Steam Spy on Patreon, please note, that it might take around 15 minutes for your access rights to sync. In most cases you'll need to re-login on Steam Spy too.

User reviews:

Login required.

Please register or log in to see this information.